createdAt,value
2022-09-28T00:00:00.226Z,0
2022-09-28T00:05:00.185Z,0
2022-09-28T00:10:00.217Z,0
2022-09-28T00:15:00.155Z,0
2022-09-28T00:20:00.194Z,0
2022-09-28T00:25:00.156Z,0
2022-09-28T00:30:00.225Z,0
2022-09-28T00:35:00.187Z,0
2022-09-28T00:40:00.197Z,0
2022-09-28T00:45:00.153Z,0
2022-09-28T00:50:00.182Z,0
2022-09-28T00:55:00.171Z,0
2022-09-28T01:00:00.208Z,0
2022-09-28T01:05:00.177Z,0
2022-09-28T01:10:00.184Z,0
2022-09-28T01:15:00.145Z,0
2022-09-28T01:20:00.192Z,0
2022-09-28T01:25:00.168Z,0
2022-09-28T01:30:00.173Z,0
2022-09-28T01:35:00.151Z,0
2022-09-28T01:40:00.165Z,0
2022-09-28T01:45:00.159Z,0
2022-09-28T01:50:00.162Z,0
2022-09-28T01:55:00.170Z,0
2022-09-28T02:00:00.213Z,0
2022-09-28T02:05:00.160Z,0
2022-09-28T02:10:00.181Z,0
2022-09-28T02:15:00.182Z,0
2022-09-28T02:20:00.178Z,0
2022-09-28T02:25:00.170Z,0
2022-09-28T02:30:00.169Z,0
2022-09-28T02:35:00.170Z,0
2022-09-28T02:40:00.171Z,0
2022-09-28T02:45:00.172Z,0
2022-09-28T02:50:00.158Z,0
2022-09-28T02:55:00.180Z,0
2022-09-28T03:00:00.256Z,0
2022-09-28T03:05:00.167Z,0
2022-09-28T03:10:00.193Z,0
2022-09-28T03:15:00.190Z,0
2022-09-28T03:20:00.175Z,0
2022-09-28T03:25:00.172Z,0
2022-09-28T03:30:00.218Z,0
2022-09-28T03:35:00.207Z,0
2022-09-28T03:40:00.177Z,0
2022-09-28T03:45:00.172Z,0
2022-09-28T03:50:00.240Z,0
2022-09-28T03:55:00.201Z,0
2022-09-28T04:00:00.225Z,0
2022-09-28T04:05:00.189Z,0
2022-09-28T04:10:00.195Z,0
2022-09-28T04:15:00.182Z,0
2022-09-28T04:20:00.184Z,0
2022-09-28T04:25:00.183Z,0
2022-09-28T04:30:00.200Z,0
2022-09-28T04:35:00.172Z,0
2022-09-28T04:40:00.202Z,0
2022-09-28T04:45:00.160Z,0
2022-09-28T04:50:00.223Z,0
2022-09-28T04:55:00.199Z,0
2022-09-28T05:00:00.243Z,2
2022-09-28T05:05:00.183Z,4
2022-09-28T05:10:00.202Z,8
2022-09-28T05:15:00.184Z,17
2022-09-28T05:20:00.193Z,39
2022-09-28T05:25:00.186Z,87
2022-09-28T05:30:00.198Z,148
2022-09-28T05:35:00.172Z,268
2022-09-28T05:40:00.215Z,389
2022-09-28T05:45:00.179Z,542
2022-09-28T05:50:00.184Z,737
2022-09-28T05:55:00.202Z,864
2022-09-28T06:00:00.248Z,1051
2022-09-28T06:05:00.182Z,1226
2022-09-28T06:10:00.257Z,1378
2022-09-28T06:15:00.221Z,1514
2022-09-28T06:20:00.185Z,1682
2022-09-28T06:25:00.195Z,1742
2022-09-28T06:30:00.219Z,1742
2022-09-28T06:35:00.197Z,1955
2022-09-28T06:40:00.205Z,2126
2022-09-28T06:45:00.242Z,2393
2022-09-28T06:50:00.209Z,2467
2022-09-28T06:55:00.200Z,2467
2022-09-28T07:00:00.237Z,2775
2022-09-28T07:05:00.233Z,2775
2022-09-28T07:10:00.200Z,3005
2022-09-28T07:15:00.192Z,3036
2022-09-28T07:20:10.971Z,3115
2022-09-28T07:25:00.204Z,3115
2022-09-28T07:30:00.226Z,3115
2022-09-28T07:35:00.213Z,3412
2022-09-28T07:40:00.200Z,3495
2022-09-28T07:45:00.219Z,3495
2022-09-28T07:50:00.221Z,3495
2022-09-28T07:55:04.518Z,3843
2022-09-28T08:00:00.237Z,3922
2022-09-28T08:05:00.210Z,4324
2022-09-28T08:10:00.192Z,4407
2022-09-28T08:15:00.248Z,4860
2022-09-28T08:20:00.193Z,4948
2022-09-28T08:25:00.284Z,4948
2022-09-28T08:30:00.224Z,5555
2022-09-28T08:35:00.211Z,5555
2022-09-28T08:40:00.209Z,5555
2022-09-28T08:45:00.221Z,5555
2022-09-28T08:50:00.399Z,6136
2022-09-28T08:55:00.187Z,6234
2022-09-28T09:00:00.243Z,6470
2022-09-28T09:05:00.224Z,5100
2022-09-28T09:10:00.187Z,6586
2022-09-28T09:15:00.208Z,7398
2022-09-28T09:20:00.208Z,8232
2022-09-28T09:25:00.209Z,9266
2022-09-28T09:30:00.223Z,8041
2022-09-28T09:35:00.200Z,10515
2022-09-28T09:40:00.192Z,10335
2022-09-28T09:45:00.200Z,5599
2022-09-28T09:50:04.064Z,6677
2022-09-28T09:55:00.200Z,8032
2022-09-28T10:00:00.255Z,5363
2022-09-28T10:05:00.191Z,6189
2022-09-28T10:10:00.226Z,8325
2022-09-28T10:15:00.208Z,8052
2022-09-28T10:20:00.239Z,10116
2022-09-28T10:25:00.213Z,10649
2022-09-28T10:30:00.226Z,10120
2022-09-28T10:35:00.212Z,8748
2022-09-28T10:40:00.221Z,6887
2022-09-28T10:45:00.222Z,6125
2022-09-28T10:50:00.205Z,8738
2022-09-28T10:55:00.209Z,12874
2022-09-28T11:00:00.294Z,10051
2022-09-28T11:05:00.247Z,8910
2022-09-28T11:10:00.222Z,8910
2022-09-28T11:15:00.193Z,8910
2022-09-28T11:20:00.211Z,13283
2022-09-28T11:25:00.210Z,11254
2022-09-28T11:30:00.211Z,11254
2022-09-28T11:35:00.539Z,14086
2022-09-28T11:40:00.203Z,12359
2022-09-28T11:45:00.220Z,9103
2022-09-28T11:50:00.222Z,9103
2022-09-28T11:55:00.219Z,9725
2022-09-28T12:00:00.276Z,8734
2022-09-28T12:05:00.190Z,9456
2022-09-28T12:10:00.216Z,11054
2022-09-28T12:15:00.213Z,8418
2022-09-28T12:20:00.261Z,9241
2022-09-28T12:25:00.207Z,30172
2022-09-28T12:30:00.237Z,32181
2022-09-28T12:35:00.210Z,16372
2022-09-28T12:40:00.607Z,12100
2022-09-28T12:45:00.212Z,41773
2022-09-28T12:55:00.300Z,41947
2022-09-28T13:00:00.232Z,42894
2022-09-28T13:05:00.192Z,8504
2022-09-28T13:10:00.338Z,8531
2022-09-28T13:15:00.228Z,10884
2022-09-28T13:20:00.369Z,35124
2022-09-28T13:25:00.197Z,33628
2022-09-28T13:30:00.999Z,27829
2022-09-28T13:35:00.217Z,19665
2022-09-28T13:40:00.220Z,18201
2022-09-28T13:45:00.250Z,23862
2022-09-28T13:50:00.239Z,20931
2022-09-28T13:55:00.206Z,16531
2022-09-28T14:00:00.245Z,14703
2022-09-28T14:05:00.206Z,19315
2022-09-28T14:10:00.216Z,24587
2022-09-28T14:15:00.219Z,31725
2022-09-28T14:20:00.234Z,51499
2022-09-28T14:25:00.230Z,57890
2022-09-28T14:30:00.454Z,60207
2022-09-28T14:35:00.187Z,57624
2022-09-28T14:40:00.204Z,38619
2022-09-28T14:45:05.240Z,21572
2022-09-28T14:50:00.215Z,13158
2022-09-28T14:55:00.258Z,9241
2022-09-28T15:00:00.364Z,8217
2022-09-28T15:05:00.477Z,7318
2022-09-28T15:10:00.236Z,6778
2022-09-28T15:15:00.196Z,6512
2022-09-28T15:20:00.222Z,6512
2022-09-28T15:25:02.702Z,6367
2022-09-28T15:30:00.201Z,6367
2022-09-28T15:35:00.195Z,6367
2022-09-28T15:40:00.200Z,6367
2022-09-28T15:45:00.187Z,6367
2022-09-28T15:50:00.204Z,5796
2022-09-28T15:55:00.199Z,5162
2022-09-28T16:00:00.231Z,4761
2022-09-28T16:05:00.187Z,4595
2022-09-28T16:10:00.208Z,4094
2022-09-28T16:15:00.159Z,3242
2022-09-28T16:20:00.189Z,2567
2022-09-28T16:25:00.183Z,2288
2022-09-28T16:30:00.319Z,2072
2022-09-28T16:35:00.199Z,2072
2022-09-28T16:40:00.315Z,1842
2022-09-28T16:45:00.201Z,1812
2022-09-28T16:50:00.303Z,1455
2022-09-28T16:55:00.207Z,1276
2022-09-28T17:00:00.393Z,1010
2022-09-28T17:05:00.192Z,708
2022-09-28T17:10:00.195Z,476
2022-09-28T17:15:00.197Z,308
2022-09-28T17:20:00.213Z,214
2022-09-28T17:25:00.209Z,150
2022-09-28T17:30:00.214Z,90
2022-09-28T17:35:19.973Z,47
2022-09-28T17:40:00.217Z,23
2022-09-28T17:45:00.213Z,11
2022-09-28T17:50:00.199Z,5
2022-09-28T17:55:00.178Z,3
2022-09-28T18:00:00.239Z,2
2022-09-28T18:05:00.204Z,0
2022-09-28T18:10:00.192Z,0
2022-09-28T18:15:00.204Z,0
2022-09-28T18:20:00.196Z,0
2022-09-28T18:25:00.195Z,0
2022-09-28T18:30:00.215Z,0
2022-09-28T18:35:00.200Z,0
2022-09-28T18:40:00.195Z,0
2022-09-28T18:45:00.218Z,0
2022-09-28T18:50:00.219Z,0
2022-09-28T18:55:00.191Z,0
2022-09-28T19:00:00.209Z,0
2022-09-28T19:05:00.185Z,0
2022-09-28T19:10:00.246Z,0
2022-09-28T19:15:00.194Z,0
2022-09-28T19:20:00.199Z,0
2022-09-28T19:25:00.217Z,0
2022-09-28T19:30:00.197Z,0
2022-09-28T19:35:00.265Z,0
2022-09-28T19:40:00.196Z,0
2022-09-28T19:45:00.182Z,0
2022-09-28T19:50:00.203Z,0
2022-09-28T19:55:00.217Z,0
2022-09-28T20:00:02.825Z,0
2022-09-28T20:05:00.200Z,0
2022-09-28T20:10:00.206Z,0
2022-09-28T20:15:00.173Z,0
2022-09-28T20:20:00.185Z,0
2022-09-28T20:25:00.181Z,0
2022-09-28T20:30:00.186Z,0
2022-09-28T20:35:00.174Z,0
2022-09-28T20:40:00.196Z,0
2022-09-28T20:45:00.186Z,0
2022-09-28T20:50:00.210Z,0
2022-09-28T20:55:00.163Z,0
2022-09-28T21:00:00.209Z,0
2022-09-28T21:05:00.199Z,0
2022-09-28T21:10:00.226Z,0
2022-09-28T21:15:04.889Z,0
2022-09-28T21:20:00.186Z,0
2022-09-28T21:25:00.173Z,0
2022-09-28T21:30:00.199Z,0
2022-09-28T21:35:00.184Z,0
2022-09-28T21:40:00.187Z,0
2022-09-28T21:45:00.185Z,0
2022-09-28T21:50:00.178Z,0
2022-09-28T21:55:00.184Z,0
2022-09-28T22:00:00.238Z,0
2022-09-28T22:05:00.217Z,0
2022-09-28T22:10:00.180Z,0
2022-09-28T22:15:00.190Z,0
2022-09-28T22:20:00.174Z,0
2022-09-28T22:25:00.174Z,0
2022-09-28T22:30:00.219Z,0
2022-09-28T22:35:00.187Z,0
2022-09-28T22:40:00.197Z,0
2022-09-28T22:45:00.169Z,0
2022-09-28T22:50:00.205Z,0
2022-09-28T22:55:00.183Z,0
2022-09-28T23:00:00.216Z,0
2022-09-28T23:05:00.169Z,0
2022-09-28T23:10:00.207Z,0
2022-09-28T23:15:00.179Z,0
2022-09-28T23:20:00.176Z,0
2022-09-28T23:25:00.183Z,0
2022-09-28T23:30:00.230Z,0
2022-09-28T23:35:00.185Z,0
2022-09-28T23:40:00.184Z,0
2022-09-28T23:45:00.174Z,0
2022-09-28T23:50:00.212Z,0
2022-09-28T23:55:00.159Z,0
